»·PEaware :: N7375Q N24-KRIL

N7375Q :: N24-KRIL

FLIGHT INFORMATION

Flight Status: Arrived
Operator: Privately registered:
United States
More flights under this callsign
Pilot: Ion I. (24133)
Aircraft: SOCATA TBM-900
(TBM9)
More flights by this aircraft type
Origin: N24 Questa Mun Nr 2
United States
Destination: KRIL Garfield Co Regl
United States
More flights between these airports :: More routes between these airports
Route: ALS DBL
File this flight plan on PilotEdge
Remarks:
Altitude:
(Current/Filed)
30,000ft
Speed:
(Current/Filed)
310kts
Departed: 21-Aug-20 02:59 PM
Arrived: 21-Aug-20 03:52 PM
Distance/Time
Traveled:
192nm/0:53
Distance/Time
To Go:
Arrived

Flight Plot

Page will automatically refresh every two minutes.

Flight plan parsing failed; only flown route is shown


Map Options




Map Legend


Flown Route
Filed Route
Departure Airport
Arrival Airport
Navaid (VOR, NDB)
Fix

Horizontal Profiles

Position Reports

Time Latitude Longitude Heading Altitude Ground
Speed
21-Aug-20 14:38 36.792425 -105.598948 90 7678ft 0kts
21-Aug-20 14:39 36.792425 -105.598948 90 7678ft 0kts
21-Aug-20 14:40 36.792425 -105.598948 90 7678ft 0kts
21-Aug-20 14:41 36.792425 -105.598948 90 7678ft 0kts
21-Aug-20 14:42 36.792425 -105.598948 90 7678ft 0kts
21-Aug-20 14:43 36.792425 -105.598948 90 7678ft 0kts
21-Aug-20 14:44 36.792425 -105.598948 90 7678ft 0kts
21-Aug-20 14:45 36.792425 -105.598948 90 7678ft 0kts
21-Aug-20 14:49 36.792487 -105.599021 270 7677ft 0kts
21-Aug-20 14:50 36.792487 -105.599021 270 7677ft 0kts
21-Aug-20 14:51 36.792487 -105.599021 270 7677ft 0kts
21-Aug-20 14:52 36.792487 -105.599021 270 7677ft 0kts
21-Aug-20 14:53 36.792487 -105.599021 270 7677ft 0kts
21-Aug-20 14:54 36.792583 -105.599111 26 7676ft 0kts
21-Aug-20 14:55 36.792680 -105.598552 89 7681ft 2kts
21-Aug-20 14:56 36.792680 -105.598100 89 7683ft 0kts
21-Aug-20 14:57 36.792680 -105.598050 90 7683ft 0kts
21-Aug-20 14:58 36.792678 -105.597607 82 7683ft 4kts
21-Aug-20 14:59 36.815259 -105.598369 353 8712ft 122kts
21-Aug-20 15:00 36.851572 -105.618151 344 11031ft 166kts
21-Aug-20 15:01 36.898756 -105.636352 342 13141ft 188kts
21-Aug-20 15:02 36.949908 -105.656588 342 15176ft 199kts
21-Aug-20 15:03 37.002931 -105.677592 341 17174ft 201kts
21-Aug-20 15:04 37.055442 -105.698437 341 19138ft 197kts
21-Aug-20 15:05 37.107896 -105.719281 341 20975ft 209kts
21-Aug-20 15:05 37.155806 -105.738348 341 22291ft 223kts
21-Aug-20 15:06 37.215722 -105.762221 342 23818ft 229kts
21-Aug-20 15:08 37.286528 -105.790474 342 25570ft 229kts
21-Aug-20 15:08 37.336996 -105.810645 342 26813ft 228kts
21-Aug-20 15:09 37.397129 -105.839537 338 28335ft 238kts
21-Aug-20 15:11 37.469628 -105.875907 337 30091ft 242kts
21-Aug-20 15:11 37.524274 -105.903393 337 30469ft 270kts
21-Aug-20 15:12 37.597053 -105.940060 337 30458ft 292kts
21-Aug-20 15:13 37.673523 -105.978663 337 30416ft 298kts
21-Aug-20 15:14 37.751020 -106.017859 337 30426ft 300kts
21-Aug-20 15:15 37.828851 -106.057317 337 30378ft 304kts
21-Aug-20 15:16 37.907700 -106.097381 337 30298ft 306kts
21-Aug-20 15:17 37.986607 -106.137566 337 30271ft 305kts
21-Aug-20 15:18 38.065174 -106.177671 337 30271ft 304kts
21-Aug-20 15:19 38.143015 -106.217498 337 30275ft 304kts
21-Aug-20 15:20 38.221702 -106.257852 337 30144ft 308kts
21-Aug-20 15:21 38.304525 -106.300462 337 28160ft 330kts
21-Aug-20 15:22 38.389956 -106.344492 338 26162ft 332kts
21-Aug-20 15:23 38.475460 -106.388647 338 24184ft 331kts
21-Aug-20 15:24 38.556839 -106.430775 338 23504ft 295kts
21-Aug-20 15:25 38.630371 -106.468947 338 23508ft 280kts
21-Aug-20 15:26 38.701808 -106.506117 338 23510ft 276kts
21-Aug-20 15:27 38.773141 -106.543319 338 23510ft 276kts
21-Aug-20 15:28 38.844263 -106.580490 338 23510ft 277kts
21-Aug-20 15:29 38.915792 -106.618166 338 23501ft 279kts
21-Aug-20 15:30 38.988208 -106.655979 337 23476ft 280kts
21-Aug-20 15:31 39.063095 -106.695357 337 22543ft 299kts
21-Aug-20 15:32 39.140960 -106.736423 337 21546ft 304kts
21-Aug-20 15:33 39.219194 -106.777777 337 20556ft 305kts
21-Aug-20 15:34 39.297087 -106.819046 337 19440ft 302kts
21-Aug-20 15:35 39.374603 -106.860222 337 18148ft 302kts
21-Aug-20 15:36 39.444274 -106.912007 298 17335ft 276kts
21-Aug-20 15:37 39.476618 -107.002464 295 16270ft 277kts
21-Aug-20 15:38 39.508028 -107.093449 295 15171ft 277kts
21-Aug-20 15:39 39.536956 -107.183177 276 14227ft 236kts
21-Aug-20 15:40 39.535536 -107.256295 272 13000ft 192kts
21-Aug-20 15:41 39.535704 -107.323406 271 11855ft 184kts
21-Aug-20 15:42 39.534585 -107.378656 272 11404ft 140kts
21-Aug-20 15:43 39.533451 -107.422765 272 10850ft 116kts
21-Aug-20 15:44 39.532422 -107.465314 271 10040ft 118kts
21-Aug-20 15:45 39.531443 -107.507740 271 9276ft 117kts
21-Aug-20 15:46 39.530480 -107.550131 270 8530ft 117kts
21-Aug-20 15:47 39.529554 -107.591425 270 7791ft 112kts
21-Aug-20 15:48 39.528669 -107.631573 273 7086ft 111kts
21-Aug-20 15:49 39.527791 -107.671896 272 6368ft 109kts
21-Aug-20 15:50 39.526929 -107.709647 272 5665ft 95kts
21-Aug-20 15:51 39.526549 -107.731001 266 5481ft 33kts
21-Aug-20 15:52 39.525465 -107.731462 88 5480ft 10kts
21-Aug-20 15:53 39.524535 -107.729186 182 5489ft 12kts
21-Aug-20 15:54 39.524371 -107.728110 358 5493ft 0kts
21-Aug-20 15:55 39.524371 -107.728110 359 5493ft 0kts

Navigation Log

Ident Type
Flight plan parsing failed, navigation log unavailable